createdAt,value
2018-05-12T00:00:15.437Z,5.07
2018-05-12T00:02:58.525Z,4.07
2018-05-12T00:05:31.511Z,4.77
2018-05-12T00:08:14.433Z,4.57
2018-05-12T00:10:44.647Z,5.33
2018-05-12T00:13:15.736Z,5.13
2018-05-12T00:15:46.856Z,6.10
2018-05-12T00:18:17.981Z,4.27
2018-05-12T00:20:50.235Z,4.60
2018-05-12T00:23:39.600Z,5.13
2018-05-12T00:26:09.854Z,5.07
2018-05-12T00:28:47.781Z,4.87
2018-05-12T00:31:22.784Z,5.07
2018-05-12T00:33:55.983Z,5.00
2018-05-12T00:36:25.819Z,4.80
2018-05-12T00:39:00.523Z,5.00
2018-05-12T00:41:30.736Z,4.90
2018-05-12T00:44:10.678Z,5.13
2018-05-12T00:46:42.516Z,4.90
2018-05-12T00:49:14.752Z,4.70
2018-05-12T00:51:46.120Z,4.60
2018-05-12T00:54:16.515Z,4.60
2018-05-12T00:56:46.181Z,4.60
2018-05-12T00:59:24.814Z,4.83
2018-05-12T01:01:55.163Z,4.63
2018-05-12T01:04:35.976Z,4.70
2018-05-12T01:07:06.427Z,4.40
2018-05-12T01:09:36.827Z,4.90
2018-05-12T01:12:12.062Z,5.03
2018-05-12T01:14:41.899Z,4.83
2018-05-12T01:17:13.032Z,5.40
2018-05-12T01:19:54.158Z,5.30
2018-05-12T01:22:26.815Z,4.63
2018-05-12T01:24:57.582Z,4.80
2018-05-12T01:27:28.529Z,5.13
2018-05-12T01:30:10.172Z,5.00
2018-05-12T01:32:56.290Z,5.07
2018-05-12T01:35:31.480Z,4.70
2018-05-12T01:38:05.919Z,4.80
2018-05-12T01:40:46.107Z,4.90
2018-05-12T01:43:40.107Z,5.20
2018-05-12T01:46:20.603Z,4.90
2018-05-12T01:48:50.446Z,5.60
2018-05-12T01:51:35.158Z,5.23
2018-05-12T01:54:26.814Z,5.30
2018-05-12T01:57:10.532Z,5.00
2018-05-12T01:59:55.630Z,5.80
2018-05-12T02:02:29.448Z,6.00
2018-05-12T02:05:09.599Z,6.10
2018-05-12T02:07:40.715Z,6.57
2018-05-12T02:10:14.578Z,6.10
2018-05-12T02:12:58.802Z,6.33
2018-05-12T02:15:28.703Z,6.13
2018-05-12T02:17:58.888Z,6.33
2018-05-12T02:20:40.540Z,6.07
2018-05-12T02:23:17.395Z,6.17
2018-05-12T02:25:53.682Z,6.00
2018-05-12T02:28:29.176Z,5.40
2018-05-12T02:31:15.743Z,6.03
2018-05-12T02:33:49.699Z,5.33
2018-05-12T02:36:24.146Z,5.37
2018-05-12T02:38:54.628Z,5.10
2018-05-12T02:41:25.291Z,5.60
2018-05-12T02:43:55.778Z,5.30
2018-05-12T02:46:29.155Z,5.50
2018-05-12T02:49:31.894Z,6.17
2018-05-12T02:52:20.079Z,5.80
2018-05-12T02:54:50.479Z,6.00
2018-05-12T02:57:25.435Z,5.30
2018-05-12T02:59:56.312Z,5.20
2018-05-12T03:02:43.130Z,5.43
2018-05-12T03:05:13.415Z,6.60
2018-05-12T03:07:56.402Z,5.57
2018-05-12T03:10:35.749Z,5.97
2018-05-12T03:13:08.733Z,6.03
2018-05-12T03:15:39.138Z,6.50
2018-05-12T03:18:11.292Z,6.50
2018-05-12T03:20:49.079Z,6.17
2018-05-12T03:23:19.026Z,6.07
2018-05-12T03:25:48.879Z,5.97
2018-05-12T03:28:19.813Z,5.77
2018-05-12T03:30:51.479Z,6.20
2018-05-12T03:33:38.881Z,6.20
2018-05-12T03:36:10.090Z,6.70
2018-05-12T03:39:05.431Z,6.93
2018-05-12T03:41:35.733Z,6.37
2018-05-12T03:44:06.182Z,6.67
2018-05-12T03:46:36.220Z,6.57
2018-05-12T03:49:06.229Z,7.07
2018-05-12T03:51:38.478Z,6.57
2018-05-12T03:54:10.735Z,6.23
2018-05-12T03:56:45.717Z,6.97
2018-05-12T03:59:15.210Z,7.73
2018-05-12T04:01:45.182Z,7.80
2018-05-12T04:04:29.188Z,7.17
2018-05-12T04:07:08.702Z,7.73
2018-05-12T04:09:48.094Z,6.80
2018-05-12T04:12:38.521Z,6.93
2018-05-12T04:15:08.559Z,7.00
2018-05-12T04:17:41.950Z,7.60
2018-05-12T04:20:10.846Z,6.20
2018-05-12T04:22:39.793Z,7.70
2018-05-12T04:25:08.745Z,6.83
2018-05-12T04:27:40.280Z,7.63
2018-05-12T04:30:09.211Z,8.50
2018-05-12T04:32:44.891Z,7.97
2018-05-12T04:35:13.893Z,7.87
2018-05-12T04:37:51.398Z,6.87
2018-05-12T04:40:23.432Z,6.93
2018-05-12T04:42:54.287Z,7.30
2018-05-12T04:45:27.003Z,7.93
2018-05-12T04:47:57.320Z,7.43
2018-05-12T04:50:30.515Z,7.60
2018-05-12T04:53:01.044Z,13.97
2018-05-12T04:55:30.555Z,7.83
2018-05-12T04:58:00.050Z,7.90
2018-05-12T05:00:30.274Z,7.43
2018-05-12T05:03:13.932Z,7.07
2018-05-12T05:05:53.451Z,7.40
2018-05-12T05:08:23.061Z,8.47
2018-05-12T05:10:53.126Z,7.83
2018-05-12T05:13:22.140Z,8.60
2018-05-12T05:15:51.808Z,8.30
2018-05-12T05:18:23.839Z,7.87
2018-05-12T05:21:07.880Z,7.90
2018-05-12T05:23:37.613Z,8.40
2018-05-12T05:26:09.874Z,8.60
2018-05-12T05:28:47.071Z,9.03
2018-05-12T05:31:18.184Z,8.40
2018-05-12T05:33:47.110Z,8.07
2018-05-12T05:36:16.603Z,8.23
2018-05-12T05:38:45.548Z,8.57
2018-05-12T05:41:15.349Z,8.70
2018-05-12T05:43:43.833Z,8.23
2018-05-12T05:46:12.847Z,9.30
2018-05-12T05:48:44.211Z,9.47
2018-05-12T05:51:12.469Z,9.10
2018-05-12T05:53:41.650Z,9.87
2018-05-12T05:56:16.927Z,9.90
2018-05-12T05:58:48.742Z,9.33
2018-05-12T06:01:16.918Z,9.83
2018-05-12T06:03:45.926Z,9.00
2018-05-12T06:06:13.907Z,9.53
2018-05-12T06:08:43.461Z,9.60
2018-05-12T06:11:18.504Z,9.77
2018-05-12T06:13:52.250Z,11.00
2018-05-12T06:16:24.390Z,9.93
2018-05-12T06:18:52.009Z,10.37
2018-05-12T06:21:20.781Z,10.50
2018-05-12T06:23:58.855Z,11.23
2018-05-12T06:26:28.592Z,10.30
2018-05-12T06:29:01.584Z,10.57
2018-05-12T06:31:29.226Z,9.77
2018-05-12T06:34:12.874Z,10.13
2018-05-12T06:36:43.326Z,10.70
2018-05-12T06:39:11.745Z,11.30
2018-05-12T06:41:41.192Z,9.97
2018-05-12T06:44:10.646Z,10.07
2018-05-12T06:46:49.008Z,10.77
2018-05-12T06:49:23.756Z,9.97
2018-05-12T06:52:04.832Z,9.47
2018-05-12T06:54:35.281Z,9.27
2018-05-12T06:57:04.637Z,8.17
2018-05-12T06:59:33.392Z,8.93
2018-05-12T07:02:03.328Z,9.63
2018-05-12T07:04:31.881Z,9.60
2018-05-12T07:07:03.843Z,8.77
2018-05-12T07:09:39.667Z,8.77
2018-05-12T07:12:07.882Z,9.37
2018-05-12T07:14:50.499Z,10.17
2018-05-12T07:17:23.588Z,9.80
2018-05-12T07:19:54.906Z,9.17
2018-05-12T07:22:24.213Z,9.37
2018-05-12T07:24:57.603Z,8.97
2018-05-12T07:27:27.411Z,8.63
2018-05-12T07:29:55.575Z,8.13
2018-05-12T07:32:24.432Z,8.70
2018-05-12T07:34:53.159Z,8.33
2018-05-12T07:37:22.513Z,8.20
2018-05-12T07:39:51.617Z,8.73
2018-05-12T07:42:26.471Z,10.40
2018-05-12T07:44:59.998Z,9.40
2018-05-12T07:47:34.055Z,8.73
2018-05-12T07:50:15.424Z,9.00
2018-05-12T07:52:46.612Z,8.53
2018-05-12T07:55:19.559Z,9.17
2018-05-12T07:57:48.548Z,9.00
2018-05-12T08:00:21.175Z,7.27
2018-05-12T08:02:48.768Z,7.70
2018-05-12T08:05:18.627Z,8.27
2018-05-12T08:07:46.238Z,8.60
2018-05-12T08:10:16.109Z,10.00
2018-05-12T08:12:50.065Z,8.23
2018-05-12T08:15:18.112Z,9.13
2018-05-12T08:17:46.052Z,8.90
2018-05-12T08:20:13.671Z,9.93
2018-05-12T08:22:41.248Z,9.33
2018-05-12T08:25:09.114Z,10.73
2018-05-12T08:27:39.357Z,9.93
2018-05-12T08:30:09.017Z,9.60
2018-05-12T08:32:39.521Z,9.50
2018-05-12T08:35:08.874Z,8.73
2018-05-12T08:37:41.409Z,9.30
2018-05-12T08:40:13.700Z,9.20
2018-05-12T08:42:43.524Z,8.80
2018-05-12T08:45:19.031Z,9.97
2018-05-12T08:47:48.084Z,9.20
2018-05-12T08:50:15.690Z,8.20
2018-05-12T08:52:44.791Z,8.97
2018-05-12T08:55:21.583Z,8.27
2018-05-12T08:58:03.095Z,8.70
2018-05-12T09:00:30.842Z,8.37
2018-05-12T09:03:02.436Z,9.33
2018-05-12T09:05:31.374Z,7.57
2018-05-12T09:08:01.812Z,8.33
2018-05-12T09:10:30.651Z,7.90
2018-05-12T09:12:58.452Z,7.73
2018-05-12T09:15:36.199Z,8.03
2018-05-12T09:18:07.136Z,8.00
2018-05-12T09:20:34.926Z,7.43
2018-05-12T09:23:23.252Z,7.73
2018-05-12T09:25:54.078Z,8.20
2018-05-12T09:28:24.148Z,7.67
2018-05-12T09:30:51.735Z,7.70
2018-05-12T09:33:22.195Z,7.00
2018-05-12T09:35:50.631Z,6.97
2018-05-12T09:38:18.731Z,7.40
2018-05-12T09:40:46.376Z,6.97
2018-05-12T09:43:14.667Z,7.73
2018-05-12T09:45:43.672Z,7.27
2018-05-12T09:48:11.259Z,8.07
2018-05-12T09:50:39.703Z,7.30
2018-05-12T09:53:11.422Z,6.77
2018-05-12T09:55:41.233Z,7.63
2018-05-12T09:58:09.374Z,7.43
2018-05-12T10:00:38.545Z,7.23
2018-05-12T10:03:28.729Z,7.53
2018-05-12T10:05:56.231Z,7.77
2018-05-12T10:08:36.452Z,7.30
2018-05-12T10:11:05.523Z,7.40
2018-05-12T10:13:33.115Z,7.37
2018-05-12T10:16:00.847Z,7.47
2018-05-12T10:18:30.846Z,6.70
2018-05-12T10:20:58.714Z,7.20
2018-05-12T10:23:32.428Z,7.97
2018-05-12T10:26:05.467Z,7.40
2018-05-12T10:28:48.113Z,7.83
2018-05-12T10:31:15.912Z,7.50
2018-05-12T10:33:45.155Z,6.40
2018-05-12T10:36:19.298Z,6.33
2018-05-12T10:39:08.011Z,6.20
2018-05-12T10:41:35.987Z,6.77
2018-05-12T10:44:22.450Z,6.40
2018-05-12T10:46:51.983Z,6.40
2018-05-12T10:49:21.301Z,6.57
2018-05-12T10:54:29.454Z,6.33
2018-05-12T10:56:59.493Z,6.03
2018-05-12T10:59:31.317Z,5.70
2018-05-12T11:02:02.793Z,5.80
2018-05-12T11:04:45.557Z,4.80
2018-05-12T11:07:14.309Z,4.83
2018-05-12T11:09:43.056Z,5.27
2018-05-12T11:12:13.135Z,4.63
2018-05-12T11:14:41.788Z,5.03
2018-05-12T11:17:14.935Z,4.23
2018-05-12T11:19:45.339Z,4.60
2018-05-12T11:22:15.426Z,4.23
2018-05-12T11:24:43.541Z,4.50
2018-05-12T11:29:59.234Z,5.07
2018-05-12T11:32:32.574Z,4.67
2018-05-12T11:35:06.569Z,4.60
2018-05-12T11:37:35.868Z,4.83
2018-05-12T11:40:08.220Z,4.53
2018-05-12T11:42:36.073Z,4.23
2018-05-12T11:45:07.652Z,4.30
2018-05-12T11:47:39.653Z,4.70
2018-05-12T11:50:11.409Z,4.43
2018-05-12T11:52:42.743Z,4.00
2018-05-12T11:55:10.294Z,4.07
2018-05-12T11:57:40.275Z,4.57
2018-05-12T12:00:10.056Z,4.27
2018-05-12T12:02:37.646Z,4.67
2018-05-12T12:05:05.442Z,4.13
2018-05-12T12:07:36.969Z,4.23
2018-05-12T12:10:10.184Z,4.13
2018-05-12T12:12:38.207Z,4.00
2018-05-12T12:15:07.783Z,4.20
2018-05-12T12:17:36.610Z,4.70
2018-05-12T12:20:12.947Z,4.13
2018-05-12T12:22:46.137Z,4.10
2018-05-12T12:25:18.179Z,4.73
2018-05-12T12:27:52.477Z,3.87
2018-05-12T12:30:22.486Z,4.13
2018-05-12T12:33:04.820Z,4.47
2018-05-12T12:35:33.886Z,4.03
2018-05-12T12:38:03.751Z,4.47
2018-05-12T12:40:32.540Z,3.67
2018-05-12T12:43:01.213Z,3.60
2018-05-12T12:45:32.729Z,4.40
2018-05-12T12:48:10.582Z,4.17
2018-05-12T12:50:40.969Z,3.77
2018-05-12T12:53:11.404Z,3.50
2018-05-12T12:55:39.750Z,3.80
2018-05-12T12:58:15.849Z,3.97
2018-05-12T13:00:43.945Z,3.20
2018-05-12T13:03:23.475Z,3.00
2018-05-12T13:06:00.114Z,3.13
2018-05-12T13:11:13.379Z,3.20
2018-05-12T13:13:45.202Z,3.47
2018-05-12T13:16:21.856Z,3.17
2018-05-12T13:19:06.246Z,2.83
2018-05-12T13:21:38.856Z,2.90
2018-05-12T13:24:22.247Z,3.17
2018-05-12T13:26:55.983Z,3.20
2018-05-12T13:29:37.100Z,3.40
2018-05-12T13:32:06.947Z,3.53
2018-05-12T13:34:41.951Z,4.27
2018-05-12T13:37:15.507Z,4.00
2018-05-12T13:39:44.998Z,4.10
2018-05-12T13:42:24.457Z,4.90
2018-05-12T13:45:14.485Z,5.13
2018-05-12T13:47:45.225Z,5.00
2018-05-12T13:50:16.995Z,4.80
2018-05-12T13:52:48.908Z,5.57
2018-05-12T13:55:28.035Z,4.87
2018-05-12T13:57:59.150Z,4.93
2018-05-12T14:00:43.317Z,5.53
2018-05-12T14:03:19.334Z,5.27
2018-05-12T14:05:50.911Z,5.17
2018-05-12T14:08:21.938Z,5.23
2018-05-12T14:10:53.523Z,5.17
2018-05-12T14:13:22.442Z,5.10
2018-05-12T14:15:58.505Z,4.97
2018-05-12T14:18:28.547Z,5.57
2018-05-12T14:20:58.294Z,5.67
2018-05-12T14:23:32.806Z,5.63
2018-05-12T14:26:04.627Z,5.53
2018-05-12T14:28:36.769Z,5.30
2018-05-12T14:31:08.567Z,5.60
2018-05-12T14:33:37.969Z,5.40
2018-05-12T14:36:09.237Z,5.93
2018-05-12T14:38:40.532Z,5.90
2018-05-12T14:41:09.649Z,6.30
2018-05-12T14:43:40.150Z,6.77
2018-05-12T14:46:09.325Z,6.80
2018-05-12T14:48:42.886Z,5.90
2018-05-12T14:51:12.236Z,6.93
2018-05-12T14:53:41.635Z,7.03
2018-05-12T14:56:22.716Z,6.63
2018-05-12T14:59:08.512Z,6.80
2018-05-12T15:01:46.538Z,7.07
2018-05-12T15:07:19.667Z,7.77
2018-05-12T15:10:06.328Z,7.57
2018-05-12T15:12:37.687Z,8.17
2018-05-12T15:15:17.766Z,8.23
2018-05-12T15:17:49.610Z,8.20
2018-05-12T15:20:28.238Z,8.33
2018-05-12T15:23:33.837Z,8.50
2018-05-12T15:26:10.910Z,7.63
2018-05-12T15:28:49.911Z,7.80
2018-05-12T15:31:20.855Z,6.80
2018-05-12T15:33:53.643Z,7.60
2018-05-12T15:36:29.687Z,7.37
2018-05-12T15:39:09.770Z,7.00
2018-05-12T15:41:43.336Z,7.10
2018-05-12T15:44:31.290Z,7.60
2018-05-12T15:47:01.668Z,8.43
2018-05-12T15:49:44.216Z,7.80
2018-05-12T15:52:17.646Z,7.37
2018-05-12T15:54:48.929Z,6.60
2018-05-12T15:57:18.896Z,5.73
2018-05-12T15:59:49.370Z,5.40
2018-05-12T16:02:20.161Z,6.00
2018-05-12T16:04:55.502Z,5.93
2018-05-12T16:07:34.341Z,6.73
2018-05-12T16:10:08.116Z,6.77
2018-05-12T16:12:39.860Z,7.30
2018-05-12T16:15:11.654Z,7.30
2018-05-12T16:18:00.904Z,6.13
2018-05-12T16:20:33.617Z,6.07
2018-05-12T16:23:04.036Z,6.60
2018-05-12T16:25:34.417Z,6.57
2018-05-12T16:28:15.995Z,7.00
2018-05-12T16:31:01.678Z,6.33
2018-05-12T16:34:03.998Z,6.43
2018-05-12T16:36:36.478Z,6.50
2018-05-12T16:39:32.318Z,6.97
2018-05-12T16:42:13.003Z,7.30
2018-05-12T16:45:03.374Z,6.67
2018-05-12T16:47:32.392Z,6.33
2018-05-12T16:50:12.104Z,6.60
2018-05-12T16:52:45.332Z,7.57
2018-05-12T16:55:15.007Z,7.90
2018-05-12T16:57:58.065Z,8.10
2018-05-12T17:00:31.570Z,8.53
2018-05-12T17:03:02.360Z,7.03
2018-05-12T17:05:32.821Z,7.30
2018-05-12T17:08:17.518Z,6.90
2018-05-12T17:10:48.321Z,6.77
2018-05-12T17:13:17.695Z,6.60
2018-05-12T17:16:01.397Z,6.43
2018-05-12T17:18:32.619Z,5.93
2018-05-12T17:21:16.766Z,6.13
2018-05-12T17:23:46.875Z,6.20
2018-05-12T17:26:18.602Z,6.47
2018-05-12T17:28:48.695Z,6.07
2018-05-12T17:31:22.074Z,6.00
2018-05-12T17:33:53.642Z,6.27
2018-05-12T17:36:25.780Z,6.17
2018-05-12T17:39:00.616Z,6.67
2018-05-12T17:41:34.894Z,6.70
2018-05-12T17:44:33.476Z,7.47
2018-05-12T17:47:07.107Z,7.53
2018-05-12T17:49:45.125Z,7.27
2018-05-12T17:52:14.459Z,7.67
2018-05-12T17:54:45.766Z,8.07
2018-05-12T17:57:23.102Z,6.90
2018-05-12T17:59:52.155Z,6.97
2018-05-12T18:02:22.370Z,7.27
2018-05-12T18:04:51.919Z,6.83
2018-05-12T18:07:21.103Z,6.60
2018-05-12T18:09:52.200Z,7.13
2018-05-12T18:12:34.590Z,7.67
2018-05-12T18:15:04.869Z,7.20
2018-05-12T18:17:36.478Z,7.57
2018-05-12T18:20:05.697Z,8.50
2018-05-12T18:22:36.306Z,8.43
2018-05-12T18:25:05.378Z,8.20
2018-05-12T18:27:41.829Z,7.67
2018-05-12T18:30:12.424Z,7.43
2018-05-12T18:32:42.901Z,7.40
2018-05-12T18:35:12.604Z,7.43
2018-05-12T18:38:11.941Z,7.47
2018-05-12T18:40:41.372Z,8.43
2018-05-12T18:43:11.362Z,9.30
2018-05-12T18:45:41.205Z,8.47
2018-05-12T18:48:14.712Z,8.13
2018-05-12T18:50:45.726Z,7.93
2018-05-12T18:53:19.119Z,9.17
2018-05-12T18:55:50.905Z,8.00
2018-05-12T18:58:27.509Z,8.53
2018-05-12T19:01:04.482Z,8.77
2018-05-12T19:03:35.544Z,8.30
2018-05-12T19:06:09.193Z,8.73
2018-05-12T19:08:39.692Z,8.03
2018-05-12T19:11:10.404Z,8.83
2018-05-12T19:13:41.288Z,8.57
2018-05-12T19:16:20.597Z,8.67
2018-05-12T19:18:49.610Z,8.90
2018-05-12T19:21:32.850Z,9.87
2018-05-12T19:24:03.193Z,8.53
2018-05-12T19:26:32.853Z,8.70
2018-05-12T19:29:04.581Z,9.13
2018-05-12T19:31:33.704Z,9.13
2018-05-12T19:34:06.207Z,9.37
2018-05-12T19:36:36.798Z,9.20
2018-05-12T19:39:09.004Z,8.53
2018-05-12T19:41:39.743Z,9.00
2018-05-12T19:44:14.767Z,10.10
2018-05-12T19:46:45.762Z,9.30
2018-05-12T19:49:15.265Z,10.17
2018-05-12T19:51:45.583Z,14.03
2018-05-12T19:54:18.399Z,10.83
2018-05-12T19:56:48.246Z,11.13
2018-05-12T19:59:25.228Z,11.17
2018-05-12T20:01:56.981Z,11.33
2018-05-12T20:04:31.640Z,11.23
2018-05-12T20:07:00.639Z,10.50
2018-05-12T20:09:40.729Z,10.83
2018-05-12T20:12:10.274Z,9.87
2018-05-12T20:14:39.637Z,9.77
2018-05-12T20:17:13.216Z,10.30
2018-05-12T20:19:42.742Z,10.23
2018-05-12T20:22:15.298Z,11.43
2018-05-12T20:24:45.292Z,12.33
2018-05-12T20:27:19.625Z,11.83
2018-05-12T20:29:48.965Z,11.83
2018-05-12T20:32:25.306Z,12.67
2018-05-12T20:34:59.776Z,11.67
2018-05-12T20:37:29.324Z,12.37
2018-05-12T20:40:03.468Z,12.20
2018-05-12T20:42:33.519Z,12.20
2018-05-12T20:45:02.458Z,11.43
2018-05-12T20:47:34.496Z,12.27
2018-05-12T20:50:05.811Z,10.63
2018-05-12T20:52:39.619Z,11.60
2018-05-12T20:55:09.740Z,11.63
2018-05-12T20:57:43.856Z,11.27
2018-05-12T21:00:19.635Z,11.90
2018-05-12T21:02:52.447Z,12.23
2018-05-12T21:05:21.859Z,11.33
2018-05-12T21:07:54.633Z,11.60
2018-05-12T21:10:30.540Z,12.47
2018-05-12T21:13:04.521Z,12.37
2018-05-12T21:15:37.640Z,11.17
2018-05-12T21:18:07.948Z,11.20
2018-05-12T21:20:46.979Z,11.20
2018-05-12T21:23:21.145Z,11.37
2018-05-12T21:26:00.029Z,11.53
2018-05-12T21:28:32.325Z,11.60
2018-05-12T21:31:08.476Z,12.03
2018-05-12T21:33:37.862Z,11.30
2018-05-12T21:36:08.476Z,12.20
2018-05-12T21:38:37.743Z,12.37
2018-05-12T21:41:08.550Z,12.30
2018-05-12T21:43:39.820Z,12.20
2018-05-12T21:46:10.733Z,12.10
2018-05-12T21:48:39.584Z,13.40
2018-05-12T21:51:12.703Z,13.07
2018-05-12T21:53:48.969Z,13.57
2018-05-12T21:56:22.889Z,12.33
2018-05-12T21:58:52.783Z,12.60
2018-05-12T22:01:23.305Z,12.97
2018-05-12T22:04:01.632Z,13.20
2018-05-12T22:06:38.838Z,12.93
2018-05-12T22:09:09.107Z,12.43
2018-05-12T22:11:43.572Z,12.77
2018-05-12T22:14:22.579Z,12.20
2018-05-12T22:16:55.780Z,12.63
2018-05-12T22:19:25.625Z,13.93
2018-05-12T22:22:11.249Z,13.73
2018-05-12T22:24:41.405Z,13.13
2018-05-12T22:27:13.246Z,12.63
2018-05-12T22:29:43.277Z,13.47
2018-05-12T22:32:14.535Z,12.87
2018-05-12T22:34:45.261Z,14.30
2018-05-12T22:37:17.981Z,13.30
2018-05-12T22:39:58.999Z,13.53
2018-05-12T22:42:29.385Z,13.13
2018-05-12T22:45:09.130Z,14.03
2018-05-12T22:47:38.133Z,14.37
2018-05-12T22:50:16.982Z,14.20
2018-05-12T22:52:51.379Z,13.70
2018-05-12T22:55:23.808Z,13.50
2018-05-12T22:57:53.182Z,13.80
2018-05-12T23:03:18.289Z,13.20
2018-05-12T23:05:50.573Z,11.73
2018-05-12T23:08:25.403Z,11.90
2018-05-12T23:10:54.338Z,13.13
2018-05-12T23:13:24.563Z,13.23
2018-05-12T23:15:54.029Z,12.93
2018-05-12T23:18:31.308Z,12.27
2018-05-12T23:21:14.464Z,12.57
2018-05-12T23:23:50.226Z,12.67
2018-05-12T23:26:20.627Z,12.80
2018-05-12T23:28:50.170Z,12.57
2018-05-12T23:31:20.485Z,12.03
2018-05-12T23:33:53.121Z,13.50
2018-05-12T23:36:35.338Z,12.47
2018-05-12T23:39:05.351Z,12.30
2018-05-12T23:41:35.588Z,11.53
2018-05-12T23:44:07.604Z,11.97
2018-05-12T23:46:38.278Z,13.00
2018-05-12T23:49:11.709Z,11.53
2018-05-12T23:51:43.473Z,12.03
2018-05-12T23:54:15.754Z,11.73
2018-05-12T23:56:46.557Z,13.37
2018-05-12T23:59:17.466Z,12.93
